Terminal Aerodrome Forecast
Issued by NWS Twin Cities, MN

Home | Current Version | Previous Version | Graphics & Text | Print | Product List | Glossary On
Versions: 1 2 3 4 5 6 7 8 9 10 11 12 13 14 15 16 17 18 19 20 21 22 23 24 25
444
FTUS43 KMPX 010848 AAA
TAFMSP
TAF AMD
KMSP 010848Z 0109/0212 31009KT P6SM SCT008 OVC012
     FM011500 32008KT P6SM OVC010
     FM012200 31006KT P6SM OVC020=

USA.gov is the U.S. government's official web portal to all federal, state and local government web resources and services.